Pansy, Arkansas
Current Conditions -  °F | °C
As of 9:53 PM on Sunday 21 Dec 2014 (Local Time) from KPBF Reporting Station
Few Clouds Few Clouds  
Wind Chill: 39°   Ceiling: Unl
Heat Index: 42°   Visibility: 10mi
Dew Point: 38°   Wind: 5mph
Humidity: 85%   Direction: 90°E
Pressure: 29.91"   Gusts: NA
Location:  33.947°N, 92.1633°W
Report Text: KPBF 220353Z AUTO 09004KT 10SM FEW080 06/03 A2991 RMK AO2 SLP129 T00560033
Loading
Personal Weather Stations






























Interactive Weather Map New forecast layout! Learn more

10-Day Weather Forecast

Advertisements
Track Severe Weather on mobile